sensor_id;sensor_type;location;lat;lon;timestamp;temperature;humidity
21019;DHT22;10667;51.056;3.732;2024-01-06T00:01:31;7.40;99.90
21019;DHT22;10667;51.056;3.732;2024-01-06T00:03:57;7.40;99.90
21019;DHT22;10667;51.056;3.732;2024-01-06T00:06:22;7.50;99.90
21019;DHT22;10667;51.056;3.732;2024-01-06T00:08:48;7.40;99.90
21019;DHT22;10667;51.056;3.732;2024-01-06T00:11:20;7.50;99.90
21019;DHT22;10667;51.056;3.732;2024-01-06T00:13:46;7.50;99.90
21019;DHT22;10667;51.056;3.732;2024-01-06T00:16:12;7.40;99.90
21019;DHT22;10667;51.056;3.732;2024-01-06T00:18:37;7.40;99.90
21019;DHT22;10667;51.056;3.732;2024-01-06T00:21:03;7.40;99.90
21019;DHT22;10667;51.056;3.732;2024-01-06T00:23:29;7.50;99.90
21019;DHT22;10667;51.056;3.732;2024-01-06T00:25:54;7.50;99.90
21019;DHT22;10667;51.056;3.732;2024-01-06T00:28:20;7.50;99.90
21019;DHT22;10667;51.056;3.732;2024-01-06T00:30:45;7.50;99.90
21019;DHT22;10667;51.056;3.732;2024-01-06T00:33:12;7.40;99.90
21019;DHT22;10667;51.056;3.732;2024-01-06T00:35:37;7.40;99.90
21019;DHT22;10667;51.056;3.732;2024-01-06T00:38:03;7.40;99.90
21019;DHT22;10667;51.056;3.732;2024-01-06T00:40:29;7.50;99.90
21019;DHT22;10667;51.056;3.732;2024-01-06T00:42:54;7.50;99.90
21019;DHT22;10667;51.056;3.732;2024-01-06T00:45:20;7.50;99.90
21019;DHT22;10667;51.056;3.732;2024-01-06T00:47:46;7.40;99.90
21019;DHT22;10667;51.056;3.732;2024-01-06T00:50:12;7.40;99.90
21019;DHT22;10667;51.056;3.732;2024-01-06T00:52:38;7.50;99.90
21019;DHT22;10667;51.056;3.732;2024-01-06T00:55:04;7.40;99.90
21019;DHT22;10667;51.056;3.732;2024-01-06T00:57:29;7.50;99.90
21019;DHT22;10667;51.056;3.732;2024-01-06T00:59:55;7.50;99.90
21019;DHT22;10667;51.056;3.732;2024-01-06T01:02:21;7.50;99.90
21019;DHT22;10667;51.056;3.732;2024-01-06T01:04:47;7.50;99.90
21019;DHT22;10667;51.056;3.732;2024-01-06T01:07:12;7.40;99.90
21019;DHT22;10667;51.056;3.732;2024-01-06T01:09:38;7.40;99.90
21019;DHT22;10667;51.056;3.732;2024-01-06T01:12:04;7.30;99.90
21019;DHT22;10667;51.056;3.732;2024-01-06T01:14:30;7.40;99.90
21019;DHT22;10667;51.056;3.732;2024-01-06T01:16:55;7.30;99.90
21019;DHT22;10667;51.056;3.732;2024-01-06T01:19:21;7.40;99.90
21019;DHT22;10667;51.056;3.732;2024-01-06T01:21:46;7.40;99.90
21019;DHT22;10667;51.056;3.732;2024-01-06T01:24:12;7.60;99.90
21019;DHT22;10667;51.056;3.732;2024-01-06T01:26:38;7.50;99.90
21019;DHT22;10667;51.056;3.732;2024-01-06T01:29:03;7.50;99.90
21019;DHT22;10667;51.056;3.732;2024-01-06T01:31:29;7.40;99.90
21019;DHT22;10667;51.056;3.732;2024-01-06T01:33:54;7.40;99.90
21019;DHT22;10667;51.056;3.732;2024-01-06T01:36:20;7.30;99.90
21019;DHT22;10667;51.056;3.732;2024-01-06T01:38:46;7.50;99.90
21019;DHT22;10667;51.056;3.732;2024-01-06T01:41:11;7.50;99.90
21019;DHT22;10667;51.056;3.732;2024-01-06T01:43:37;7.30;99.90
21019;DHT22;10667;51.056;3.732;2024-01-06T01:46:03;7.40;99.90
21019;DHT22;10667;51.056;3.732;2024-01-06T01:48:29;7.30;99.90
21019;DHT22;10667;51.056;3.732;2024-01-06T01:50:56;7.30;99.90
21019;DHT22;10667;51.056;3.732;2024-01-06T01:53:23;7.30;99.90
21019;DHT22;10667;51.056;3.732;2024-01-06T01:55:50;7.20;99.90
21019;DHT22;10667;51.056;3.732;2024-01-06T01:58:16;7.30;99.90
21019;DHT22;10667;51.056;3.732;2024-01-06T02:00:42;7.40;99.90
21019;DHT22;10667;51.056;3.732;2024-01-06T02:03:09;7.30;99.90
21019;DHT22;10667;51.056;3.732;2024-01-06T02:05:36;7.30;99.90
21019;DHT22;10667;51.056;3.732;2024-01-06T02:08:02;7.20;99.90
21019;DHT22;10667;51.056;3.732;2024-01-06T02:10:28;7.20;99.90
21019;DHT22;10667;51.056;3.732;2024-01-06T02:12:54;7.20;99.90
21019;DHT22;10667;51.056;3.732;2024-01-06T02:15:20;7.20;99.90
21019;DHT22;10667;51.056;3.732;2024-01-06T02:17:45;7.30;99.90
21019;DHT22;10667;51.056;3.732;2024-01-06T02:20:11;7.20;99.90
21019;DHT22;10667;51.056;3.732;2024-01-06T02:22:38;7.20;99.90
21019;DHT22;10667;51.056;3.732;2024-01-06T02:25:07;7.20;99.90
21019;DHT22;10667;51.056;3.732;2024-01-06T02:27:38;7.30;99.90
21019;DHT22;10667;51.056;3.732;2024-01-06T02:30:05;7.20;99.90
21019;DHT22;10667;51.056;3.732;2024-01-06T02:32:31;7.30;99.90
21019;DHT22;10667;51.056;3.732;2024-01-06T02:34:57;7.30;99.90
21019;DHT22;10667;51.056;3.732;2024-01-06T02:37:22;7.20;99.90
21019;DHT22;10667;51.056;3.732;2024-01-06T02:39:48;7.20;99.90
21019;DHT22;10667;51.056;3.732;2024-01-06T02:42:14;7.20;99.90
21019;DHT22;10667;51.056;3.732;2024-01-06T02:44:39;7.20;99.90
21019;DHT22;10667;51.056;3.732;2024-01-06T02:47:05;7.10;99.90
21019;DHT22;10667;51.056;3.732;2024-01-06T02:49:31;7.10;99.90
21019;DHT22;10667;51.056;3.732;2024-01-06T02:51:56;7.10;99.90
21019;DHT22;10667;51.056;3.732;2024-01-06T02:54:22;7.20;99.90
21019;DHT22;10667;51.056;3.732;2024-01-06T02:56:47;7.20;99.90
21019;DHT22;10667;51.056;3.732;2024-01-06T02:59:13;7.20;99.90
21019;DHT22;10667;51.056;3.732;2024-01-06T03:01:39;7.20;99.90
21019;DHT22;10667;51.056;3.732;2024-01-06T03:04:04;7.20;99.90
21019;DHT22;10667;51.056;3.732;2024-01-06T03:06:30;7.10;99.90
21019;DHT22;10667;51.056;3.732;2024-01-06T03:08:55;7.10;99.90
21019;DHT22;10667;51.056;3.732;2024-01-06T03:11:21;7.10;99.90
21019;DHT22;10667;51.056;3.732;2024-01-06T03:13:47;7.10;99.90
21019;DHT22;10667;51.056;3.732;2024-01-06T03:16:13;7.10;99.90
21019;DHT22;10667;51.056;3.732;2024-01-06T03:18:39;7.10;99.90
21019;DHT22;10667;51.056;3.732;2024-01-06T03:21:04;7.20;99.90
21019;DHT22;10667;51.056;3.732;2024-01-06T03:23:30;7.20;99.90
21019;DHT22;10667;51.056;3.732;2024-01-06T03:25:55;7.10;99.90
21019;DHT22;10667;51.056;3.732;2024-01-06T03:28:21;7.10;99.90
21019;DHT22;10667;51.056;3.732;2024-01-06T03:30:47;7.10;99.90
21019;DHT22;10667;51.056;3.732;2024-01-06T03:33:12;7.10;99.90
21019;DHT22;10667;51.056;3.732;2024-01-06T03:35:38;7.10;99.90
21019;DHT22;10667;51.056;3.732;2024-01-06T03:38:04;7.20;99.90
21019;DHT22;10667;51.056;3.732;2024-01-06T03:40:29;7.30;99.90
21019;DHT22;10667;51.056;3.732;2024-01-06T03:42:55;7.30;99.90
21019;DHT22;10667;51.056;3.732;2024-01-06T03:45:20;7.30;99.90
21019;DHT22;10667;51.056;3.732;2024-01-06T03:47:46;7.30;99.90
21019;DHT22;10667;51.056;3.732;2024-01-06T03:50:12;7.40;99.90
21019;DHT22;10667;51.056;3.732;2024-01-06T03:52:38;7.20;99.90
21019;DHT22;10667;51.056;3.732;2024-01-06T03:55:05;7.10;99.90
21019;DHT22;10667;51.056;3.732;2024-01-06T03:57:31;7.10;99.90
21019;DHT22;10667;51.056;3.732;2024-01-06T03:59:57;7.10;99.90
21019;DHT22;10667;51.056;3.732;2024-01-06T04:02:22;7.10;99.90
21019;DHT22;10667;51.056;3.732;2024-01-06T04:04:48;7.00;99.90
21019;DHT22;10667;51.056;3.732;2024-01-06T04:07:13;7.00;99.90
21019;DHT22;10667;51.056;3.732;2024-01-06T04:09:42;7.10;99.90
21019;DHT22;10667;51.056;3.732;2024-01-06T04:12:08;7.10;99.90
21019;DHT22;10667;51.056;3.732;2024-01-06T04:14:33;7.00;99.90
21019;DHT22;10667;51.056;3.732;2024-01-06T04:16:59;7.10;99.90
21019;DHT22;10667;51.056;3.732;2024-01-06T04:19:25;7.20;99.90
21019;DHT22;10667;51.056;3.732;2024-01-06T04:21:50;7.20;99.90
21019;DHT22;10667;51.056;3.732;2024-01-06T04:24:16;7.20;99.90
21019;DHT22;10667;51.056;3.732;2024-01-06T04:26:42;7.10;99.90
21019;DHT22;10667;51.056;3.732;2024-01-06T04:29:10;7.00;99.90
21019;DHT22;10667;51.056;3.732;2024-01-06T04:31:36;7.10;99.90
21019;DHT22;10667;51.056;3.732;2024-01-06T04:34:01;7.10;99.90
21019;DHT22;10667;51.056;3.732;2024-01-06T04:36:28;7.10;99.90
21019;DHT22;10667;51.056;3.732;2024-01-06T04:38:54;7.10;99.90
21019;DHT22;10667;51.056;3.732;2024-01-06T04:41:20;7.10;99.90
21019;DHT22;10667;51.056;3.732;2024-01-06T04:43:46;7.10;99.90
21019;DHT22;10667;51.056;3.732;2024-01-06T04:46:12;7.00;99.90
21019;DHT22;10667;51.056;3.732;2024-01-06T04:48:43;7.10;99.90
21019;DHT22;10667;51.056;3.732;2024-01-06T04:51:09;7.20;99.90
21019;DHT22;10667;51.056;3.732;2024-01-06T04:53:38;7.20;99.90
21019;DHT22;10667;51.056;3.732;2024-01-06T04:56:04;7.10;99.90
21019;DHT22;10667;51.056;3.732;2024-01-06T04:58:29;7.10;99.90
21019;DHT22;10667;51.056;3.732;2024-01-06T05:00:55;7.10;99.90
21019;DHT22;10667;51.056;3.732;2024-01-06T05:03:21;7.10;99.90
21019;DHT22;10667;51.056;3.732;2024-01-06T05:05:47;7.00;99.90
21019;DHT22;10667;51.056;3.732;2024-01-06T05:08:12;7.00;99.90
21019;DHT22;10667;51.056;3.732;2024-01-06T05:10:38;6.90;99.90
21019;DHT22;10667;51.056;3.732;2024-01-06T05:13:03;6.90;99.90
21019;DHT22;10667;51.056;3.732;2024-01-06T05:15:29;6.90;99.90
21019;DHT22;10667;51.056;3.732;2024-01-06T05:17:55;6.90;99.90
21019;DHT22;10667;51.056;3.732;2024-01-06T05:20:20;6.90;99.90
21019;DHT22;10667;51.056;3.732;2024-01-06T05:22:46;7.00;99.90
21019;DHT22;10667;51.056;3.732;2024-01-06T05:25:12;6.90;99.90
21019;DHT22;10667;51.056;3.732;2024-01-06T05:27:37;6.90;99.90
21019;DHT22;10667;51.056;3.732;2024-01-06T05:30:03;6.90;99.90
21019;DHT22;10667;51.056;3.732;2024-01-06T05:32:29;6.90;99.90
21019;DHT22;10667;51.056;3.732;2024-01-06T05:34:55;6.90;99.90
21019;DHT22;10667;51.056;3.732;2024-01-06T05:37:20;6.80;99.90
21019;DHT22;10667;51.056;3.732;2024-01-06T05:39:46;6.80;99.90
21019;DHT22;10667;51.056;3.732;2024-01-06T05:42:13;6.70;99.90
21019;DHT22;10667;51.056;3.732;2024-01-06T05:44:40;6.70;99.90
21019;DHT22;10667;51.056;3.732;2024-01-06T05:47:06;6.70;99.90
21019;DHT22;10667;51.056;3.732;2024-01-06T05:49:32;6.70;99.90
21019;DHT22;10667;51.056;3.732;2024-01-06T05:51:57;6.70;99.90
21019;DHT22;10667;51.056;3.732;2024-01-06T05:54:23;6.70;99.90
21019;DHT22;10667;51.056;3.732;2024-01-06T05:56:49;6.60;99.90
21019;DHT22;10667;51.056;3.732;2024-01-06T05:59:14;6.70;99.90
21019;DHT22;10667;51.056;3.732;2024-01-06T06:01:40;6.70;99.90
21019;DHT22;10667;51.056;3.732;2024-01-06T06:04:05;6.70;99.90
21019;DHT22;10667;51.056;3.732;2024-01-06T06:06:31;6.70;99.90
21019;DHT22;10667;51.056;3.732;2024-01-06T06:08:58;6.70;99.90
21019;DHT22;10667;51.056;3.732;2024-01-06T06:11:23;6.70;99.90
21019;DHT22;10667;51.056;3.732;2024-01-06T06:13:49;6.80;99.90
21019;DHT22;10667;51.056;3.732;2024-01-06T06:16:15;6.80;99.90
21019;DHT22;10667;51.056;3.732;2024-01-06T06:18:40;6.80;99.90
21019;DHT22;10667;51.056;3.732;2024-01-06T06:21:09;6.80;99.90
21019;DHT22;10667;51.056;3.732;2024-01-06T06:23:35;6.80;99.90
21019;DHT22;10667;51.056;3.732;2024-01-06T06:26:07;6.80;99.90
21019;DHT22;10667;51.056;3.732;2024-01-06T06:28:34;6.90;99.90
21019;DHT22;10667;51.056;3.732;2024-01-06T06:31:01;6.80;99.90
21019;DHT22;10667;51.056;3.732;2024-01-06T06:33:27;6.80;99.90
21019;DHT22;10667;51.056;3.732;2024-01-06T06:35:52;6.80;99.90
21019;DHT22;10667;51.056;3.732;2024-01-06T06:38:18;6.70;99.90
21019;DHT22;10667;51.056;3.732;2024-01-06T06:40:43;6.70;99.90
21019;DHT22;10667;51.056;3.732;2024-01-06T06:43:09;6.70;99.90
21019;DHT22;10667;51.056;3.732;2024-01-06T06:45:35;6.70;99.90
21019;DHT22;10667;51.056;3.732;2024-01-06T06:48:00;6.70;99.90
21019;DHT22;10667;51.056;3.732;2024-01-06T06:50:26;6.60;99.90
21019;DHT22;10667;51.056;3.732;2024-01-06T06:52:52;6.60;99.90
21019;DHT22;10667;51.056;3.732;2024-01-06T06:55:18;6.60;99.90
21019;DHT22;10667;51.056;3.732;2024-01-06T06:57:43;6.60;99.90
21019;DHT22;10667;51.056;3.732;2024-01-06T07:00:09;6.60;99.90
21019;DHT22;10667;51.056;3.732;2024-01-06T07:02:35;6.60;99.90
21019;DHT22;10667;51.056;3.732;2024-01-06T07:05:02;6.60;99.90
21019;DHT22;10667;51.056;3.732;2024-01-06T07:07:28;6.50;99.90
21019;DHT22;10667;51.056;3.732;2024-01-06T07:09:53;6.50;99.90
21019;DHT22;10667;51.056;3.732;2024-01-06T07:12:19;6.50;99.90
21019;DHT22;10667;51.056;3.732;2024-01-06T07:14:45;6.50;99.90
21019;DHT22;10667;51.056;3.732;2024-01-06T07:17:10;6.60;99.90
21019;DHT22;10667;51.056;3.732;2024-01-06T07:19:36;6.60;99.90
21019;DHT22;10667;51.056;3.732;2024-01-06T07:22:02;6.60;99.90
21019;DHT22;10667;51.056;3.732;2024-01-06T07:24:27;6.60;99.90
21019;DHT22;10667;51.056;3.732;2024-01-06T07:26:53;6.70;99.90
21019;DHT22;10667;51.056;3.732;2024-01-06T07:29:19;6.60;99.90
21019;DHT22;10667;51.056;3.732;2024-01-06T07:31:45;6.60;99.90
21019;DHT22;10667;51.056;3.732;2024-01-06T07:34:10;6.50;99.90
21019;DHT22;10667;51.056;3.732;2024-01-06T07:36:36;6.40;99.90
21019;DHT22;10667;51.056;3.732;2024-01-06T07:39:03;6.40;99.90
21019;DHT22;10667;51.056;3.732;2024-01-06T07:41:30;6.40;99.90
21019;DHT22;10667;51.056;3.732;2024-01-06T07:43:57;6.40;99.90
21019;DHT22;10667;51.056;3.732;2024-01-06T07:46:23;6.50;99.90
21019;DHT22;10667;51.056;3.732;2024-01-06T07:48:49;6.60;99.90
21019;DHT22;10667;51.056;3.732;2024-01-06T07:51:14;6.50;99.90
21019;DHT22;10667;51.056;3.732;2024-01-06T07:53:41;6.60;99.90
21019;DHT22;10667;51.056;3.732;2024-01-06T07:56:07;6.60;99.90
21019;DHT22;10667;51.056;3.732;2024-01-06T07:58:33;6.60;99.90
21019;DHT22;10667;51.056;3.732;2024-01-06T08:00:59;6.60;99.90
21019;DHT22;10667;51.056;3.732;2024-01-06T08:03:25;6.50;99.90
21019;DHT22;10667;51.056;3.732;2024-01-06T08:05:50;6.50;99.90
21019;DHT22;10667;51.056;3.732;2024-01-06T08:08:16;6.50;99.90
21019;DHT22;10667;51.056;3.732;2024-01-06T08:10:42;6.50;99.90
21019;DHT22;10667;51.056;3.732;2024-01-06T08:13:08;6.40;99.90
21019;DHT22;10667;51.056;3.732;2024-01-06T08:15:34;6.40;99.90
21019;DHT22;10667;51.056;3.732;2024-01-06T08:17:59;6.50;99.90
21019;DHT22;10667;51.056;3.732;2024-01-06T08:20:25;6.50;99.90
21019;DHT22;10667;51.056;3.732;2024-01-06T08:22:51;6.50;99.90
21019;DHT22;10667;51.056;3.732;2024-01-06T08:25:17;6.40;99.90
21019;DHT22;10667;51.056;3.732;2024-01-06T08:27:45;6.40;99.90
21019;DHT22;10667;51.056;3.732;2024-01-06T08:30:11;6.40;99.90
21019;DHT22;10667;51.056;3.732;2024-01-06T08:32:37;6.40;99.90
21019;DHT22;10667;51.056;3.732;2024-01-06T08:35:03;6.40;99.90
21019;DHT22;10667;51.056;3.732;2024-01-06T08:37:30;6.40;99.90
21019;DHT22;10667;51.056;3.732;2024-01-06T08:39:55;6.40;99.90
21019;DHT22;10667;51.056;3.732;2024-01-06T08:42:21;6.40;99.90
21019;DHT22;10667;51.056;3.732;2024-01-06T08:44:47;6.40;99.90
21019;DHT22;10667;51.056;3.732;2024-01-06T08:47:13;6.40;99.90
21019;DHT22;10667;51.056;3.732;2024-01-06T08:49:38;6.40;99.90
21019;DHT22;10667;51.056;3.732;2024-01-06T08:52:04;6.30;99.90
21019;DHT22;10667;51.056;3.732;2024-01-06T08:54:31;6.30;99.90
21019;DHT22;10667;51.056;3.732;2024-01-06T08:56:57;6.30;99.90
21019;DHT22;10667;51.056;3.732;2024-01-06T08:59:23;6.30;99.90
21019;DHT22;10667;51.056;3.732;2024-01-06T09:01:49;6.20;99.90
21019;DHT22;10667;51.056;3.732;2024-01-06T09:04:14;6.30;99.90
21019;DHT22;10667;51.056;3.732;2024-01-06T09:06:40;6.30;99.90
21019;DHT22;10667;51.056;3.732;2024-01-06T09:09:07;6.20;99.90
21019;DHT22;10667;51.056;3.732;2024-01-06T09:11:34;6.20;99.90
21019;DHT22;10667;51.056;3.732;2024-01-06T09:13:59;6.20;99.90
21019;DHT22;10667;51.056;3.732;2024-01-06T09:16:26;6.20;99.90
21019;DHT22;10667;51.056;3.732;2024-01-06T09:18:52;6.30;99.90
21019;DHT22;10667;51.056;3.732;2024-01-06T09:21:17;6.30;99.90
21019;DHT22;10667;51.056;3.732;2024-01-06T09:23:43;6.30;99.90
21019;DHT22;10667;51.056;3.732;2024-01-06T09:26:09;6.30;99.90
21019;DHT22;10667;51.056;3.732;2024-01-06T09:28:35;6.40;99.90
21019;DHT22;10667;51.056;3.732;2024-01-06T09:31:00;6.30;99.90
21019;DHT22;10667;51.056;3.732;2024-01-06T09:33:26;6.30;99.90
21019;DHT22;10667;51.056;3.732;2024-01-06T09:35:52;6.30;99.90
21019;DHT22;10667;51.056;3.732;2024-01-06T09:38:18;6.30;99.90
21019;DHT22;10667;51.056;3.732;2024-01-06T09:40:44;6.30;99.90
21019;DHT22;10667;51.056;3.732;2024-01-06T09:43:11;6.30;99.90
21019;DHT22;10667;51.056;3.732;2024-01-06T09:45:38;6.30;99.90
21019;DHT22;10667;51.056;3.732;2024-01-06T09:48:11;6.30;99.90
21019;DHT22;10667;51.056;3.732;2024-01-06T09:50:40;6.30;99.90
21019;DHT22;10667;51.056;3.732;2024-01-06T09:53:09;6.30;99.90
21019;DHT22;10667;51.056;3.732;2024-01-06T09:55:36;6.30;99.90
21019;DHT22;10667;51.056;3.732;2024-01-06T09:58:02;6.40;99.90
21019;DHT22;10667;51.056;3.732;2024-01-06T10:00:27;6.30;99.90
21019;DHT22;10667;51.056;3.732;2024-01-06T10:02:54;6.40;99.90
21019;DHT22;10667;51.056;3.732;2024-01-06T10:05:20;6.30;99.90
21019;DHT22;10667;51.056;3.732;2024-01-06T10:07:46;6.40;99.90
21019;DHT22;10667;51.056;3.732;2024-01-06T10:10:13;6.40;99.90
21019;DHT22;10667;51.056;3.732;2024-01-06T10:12:39;6.40;99.90
21019;DHT22;10667;51.056;3.732;2024-01-06T10:15:06;6.40;99.90
21019;DHT22;10667;51.056;3.732;2024-01-06T10:17:33;6.40;99.90
21019;DHT22;10667;51.056;3.732;2024-01-06T10:20:02;6.30;99.90
21019;DHT22;10667;51.056;3.732;2024-01-06T10:22:28;6.20;99.90
21019;DHT22;10667;51.056;3.732;2024-01-06T10:24:55;6.20;99.90
21019;DHT22;10667;51.056;3.732;2024-01-06T10:27:21;6.20;99.90
21019;DHT22;10667;51.056;3.732;2024-01-06T10:29:47;6.30;99.90
21019;DHT22;10667;51.056;3.732;2024-01-06T10:32:13;6.20;99.90
21019;DHT22;10667;51.056;3.732;2024-01-06T10:34:38;6.10;99.90
21019;DHT22;10667;51.056;3.732;2024-01-06T10:37:05;6.10;99.90
21019;DHT22;10667;51.056;3.732;2024-01-06T10:39:31;6.10;99.90
21019;DHT22;10667;51.056;3.732;2024-01-06T10:41:57;6.20;99.90
21019;DHT22;10667;51.056;3.732;2024-01-06T10:44:24;6.30;99.90
21019;DHT22;10667;51.056;3.732;2024-01-06T10:46:50;6.20;99.90
21019;DHT22;10667;51.056;3.732;2024-01-06T10:49:19;6.20;99.90
21019;DHT22;10667;51.056;3.732;2024-01-06T10:51:48;6.20;99.90
21019;DHT22;10667;51.056;3.732;2024-01-06T10:54:14;6.20;99.90
21019;DHT22;10667;51.056;3.732;2024-01-06T10:56:43;6.10;99.90
21019;DHT22;10667;51.056;3.732;2024-01-06T10:59:08;6.00;99.90
21019;DHT22;10667;51.056;3.732;2024-01-06T11:01:37;6.10;99.90
21019;DHT22;10667;51.056;3.732;2024-01-06T11:04:04;6.10;99.90
21019;DHT22;10667;51.056;3.732;2024-01-06T11:06:31;6.10;99.90
21019;DHT22;10667;51.056;3.732;2024-01-06T11:09:19;6.10;99.90
21019;DHT22;10667;51.056;3.732;2024-01-06T11:11:47;6.20;99.90
21019;DHT22;10667;51.056;3.732;2024-01-06T11:14:23;6.20;99.90
21019;DHT22;10667;51.056;3.732;2024-01-06T11:16:50;6.20;99.90
21019;DHT22;10667;51.056;3.732;2024-01-06T11:22:26;6.10;99.90
21019;DHT22;10667;51.056;3.732;2024-01-06T11:24:55;6.10;99.90
21019;DHT22;10667;51.056;3.732;2024-01-06T11:27:25;6.10;99.90
21019;DHT22;10667;51.056;3.732;2024-01-06T11:29:57;6.20;99.90
21019;DHT22;10667;51.056;3.732;2024-01-06T11:32:30;6.30;99.90
21019;DHT22;10667;51.056;3.732;2024-01-06T11:35:09;6.30;99.90
21019;DHT22;10667;51.056;3.732;2024-01-06T11:40:11;6.30;99.90
21019;DHT22;10667;51.056;3.732;2024-01-06T11:42:41;6.40;99.90
21019;DHT22;10667;51.056;3.732;2024-01-06T11:45:08;6.40;99.90
21019;DHT22;10667;51.056;3.732;2024-01-06T11:47:35;6.30;99.90
21019;DHT22;10667;51.056;3.732;2024-01-06T11:50:01;6.30;99.90
21019;DHT22;10667;51.056;3.732;2024-01-06T11:52:34;6.30;99.90
21019;DHT22;10667;51.056;3.732;2024-01-06T11:55:00;6.20;99.90
21019;DHT22;10667;51.056;3.732;2024-01-06T11:57:29;6.30;99.90
21019;DHT22;10667;51.056;3.732;2024-01-06T11:59:55;6.30;99.90
21019;DHT22;10667;51.056;3.732;2024-01-06T12:02:21;6.20;99.90
21019;DHT22;10667;51.056;3.732;2024-01-06T12:04:51;6.20;99.90
21019;DHT22;10667;51.056;3.732;2024-01-06T12:07:17;6.20;99.90
21019;DHT22;10667;51.056;3.732;2024-01-06T12:09:43;6.30;99.90
21019;DHT22;10667;51.056;3.732;2024-01-06T12:12:09;6.30;99.90
21019;DHT22;10667;51.056;3.732;2024-01-06T12:14:41;6.20;99.90
21019;DHT22;10667;51.056;3.732;2024-01-06T12:17:07;6.30;99.90
21019;DHT22;10667;51.056;3.732;2024-01-06T12:19:33;6.30;99.90
21019;DHT22;10667;51.056;3.732;2024-01-06T12:21:59;6.30;99.90
21019;DHT22;10667;51.056;3.732;2024-01-06T12:24:27;6.40;99.90
21019;DHT22;10667;51.056;3.732;2024-01-06T12:26:55;6.40;99.90
21019;DHT22;10667;51.056;3.732;2024-01-06T12:29:21;6.50;99.90
21019;DHT22;10667;51.056;3.732;2024-01-06T12:31:47;6.40;99.90
21019;DHT22;10667;51.056;3.732;2024-01-06T12:34:13;6.40;99.90
21019;DHT22;10667;51.056;3.732;2024-01-06T12:36:39;6.40;99.90
21019;DHT22;10667;51.056;3.732;2024-01-06T12:39:10;6.40;99.90
21019;DHT22;10667;51.056;3.732;2024-01-06T12:41:37;6.40;99.90
21019;DHT22;10667;51.056;3.732;2024-01-06T12:44:03;6.40;99.90
21019;DHT22;10667;51.056;3.732;2024-01-06T12:46:29;6.40;99.90
21019;DHT22;10667;51.056;3.732;2024-01-06T12:48:55;6.40;99.90
21019;DHT22;10667;51.056;3.732;2024-01-06T12:51:21;6.30;99.90
21019;DHT22;10667;51.056;3.732;2024-01-06T12:53:46;6.20;99.90
21019;DHT22;10667;51.056;3.732;2024-01-06T12:56:12;6.20;99.90
21019;DHT22;10667;51.056;3.732;2024-01-06T12:58:40;6.30;99.90
21019;DHT22;10667;51.056;3.732;2024-01-06T13:01:06;6.40;99.90
21019;DHT22;10667;51.056;3.732;2024-01-06T13:03:32;6.40;99.90
21019;DHT22;10667;51.056;3.732;2024-01-06T13:05:59;6.40;99.90
21019;DHT22;10667;51.056;3.732;2024-01-06T13:08:25;6.30;99.90
21019;DHT22;10667;51.056;3.732;2024-01-06T13:10:51;6.30;99.90
21019;DHT22;10667;51.056;3.732;2024-01-06T13:13:17;6.40;99.90
21019;DHT22;10667;51.056;3.732;2024-01-06T13:15:43;6.40;99.90
21019;DHT22;10667;51.056;3.732;2024-01-06T13:18:08;6.40;99.90
21019;DHT22;10667;51.056;3.732;2024-01-06T13:20:34;6.40;99.90
21019;DHT22;10667;51.056;3.732;2024-01-06T13:23:00;6.40;99.90
21019;DHT22;10667;51.056;3.732;2024-01-06T13:25:25;6.40;99.90
21019;DHT22;10667;51.056;3.732;2024-01-06T13:27:51;6.40;99.90
21019;DHT22;10667;51.056;3.732;2024-01-06T13:30:17;6.50;99.90
21019;DHT22;10667;51.056;3.732;2024-01-06T13:32:42;6.50;99.90
21019;DHT22;10667;51.056;3.732;2024-01-06T13:35:08;6.50;99.90
21019;DHT22;10667;51.056;3.732;2024-01-06T13:37:36;6.40;99.90
21019;DHT22;10667;51.056;3.732;2024-01-06T13:40:02;6.40;99.90
21019;DHT22;10667;51.056;3.732;2024-01-06T13:42:29;6.40;99.90
21019;DHT22;10667;51.056;3.732;2024-01-06T13:44:54;6.50;99.90
21019;DHT22;10667;51.056;3.732;2024-01-06T13:47:20;6.50;99.90
21019;DHT22;10667;51.056;3.732;2024-01-06T13:49:45;6.50;99.90
21019;DHT22;10667;51.056;3.732;2024-01-06T13:52:11;6.50;99.90
21019;DHT22;10667;51.056;3.732;2024-01-06T13:54:37;6.60;99.90
21019;DHT22;10667;51.056;3.732;2024-01-06T13:57:03;6.60;99.90
21019;DHT22;10667;51.056;3.732;2024-01-06T13:59:28;6.50;99.90
21019;DHT22;10667;51.056;3.732;2024-01-06T14:01:54;6.50;99.90
21019;DHT22;10667;51.056;3.732;2024-01-06T14:04:20;6.50;99.90
21019;DHT22;10667;51.056;3.732;2024-01-06T14:06:46;6.50;99.90
21019;DHT22;10667;51.056;3.732;2024-01-06T14:09:13;6.50;99.90
21019;DHT22;10667;51.056;3.732;2024-01-06T14:11:39;6.60;99.90
21019;DHT22;10667;51.056;3.732;2024-01-06T14:14:05;6.60;99.90
21019;DHT22;10667;51.056;3.732;2024-01-06T14:16:30;6.60;99.90
21019;DHT22;10667;51.056;3.732;2024-01-06T14:18:56;6.60;99.90
21019;DHT22;10667;51.056;3.732;2024-01-06T14:21:23;6.50;99.90
21019;DHT22;10667;51.056;3.732;2024-01-06T14:23:49;6.50;99.90
21019;DHT22;10667;51.056;3.732;2024-01-06T14:26:16;6.50;99.90
21019;DHT22;10667;51.056;3.732;2024-01-06T14:28:42;6.40;99.90
21019;DHT22;10667;51.056;3.732;2024-01-06T14:31:08;6.40;99.90
21019;DHT22;10667;51.056;3.732;2024-01-06T14:33:35;6.50;99.90
21019;DHT22;10667;51.056;3.732;2024-01-06T14:36:01;6.50;99.90
21019;DHT22;10667;51.056;3.732;2024-01-06T14:38:27;6.50;99.90
21019;DHT22;10667;51.056;3.732;2024-01-06T14:40:53;6.50;99.90
21019;DHT22;10667;51.056;3.732;2024-01-06T14:43:19;6.40;99.90
21019;DHT22;10667;51.056;3.732;2024-01-06T14:45:46;6.40;99.90
21019;DHT22;10667;51.056;3.732;2024-01-06T14:48:12;6.40;99.90
21019;DHT22;10667;51.056;3.732;2024-01-06T14:50:38;6.40;99.90
21019;DHT22;10667;51.056;3.732;2024-01-06T14:53:03;6.50;99.90
21019;DHT22;10667;51.056;3.732;2024-01-06T14:55:29;6.50;99.90
21019;DHT22;10667;51.056;3.732;2024-01-06T14:57:55;6.50;99.90
21019;DHT22;10667;51.056;3.732;2024-01-06T15:00:20;6.40;99.90
21019;DHT22;10667;51.056;3.732;2024-01-06T15:02:46;6.40;99.90
21019;DHT22;10667;51.056;3.732;2024-01-06T15:05:12;6.40;99.90
21019;DHT22;10667;51.056;3.732;2024-01-06T15:07:38;6.40;99.90
21019;DHT22;10667;51.056;3.732;2024-01-06T15:10:04;6.40;99.90
21019;DHT22;10667;51.056;3.732;2024-01-06T15:12:31;6.30;99.90
21019;DHT22;10667;51.056;3.732;2024-01-06T15:14:57;6.20;99.90
21019;DHT22;10667;51.056;3.732;2024-01-06T15:17:24;6.30;99.90
21019;DHT22;10667;51.056;3.732;2024-01-06T15:19:49;6.20;99.90
21019;DHT22;10667;51.056;3.732;2024-01-06T15:22:16;6.20;99.90
21019;DHT22;10667;51.056;3.732;2024-01-06T15:24:42;6.20;99.90
21019;DHT22;10667;51.056;3.732;2024-01-06T15:27:13;6.20;99.90
21019;DHT22;10667;51.056;3.732;2024-01-06T15:29:38;6.20;99.90
21019;DHT22;10667;51.056;3.732;2024-01-06T15:32:05;6.20;99.90
21019;DHT22;10667;51.056;3.732;2024-01-06T15:34:30;6.20;99.90
21019;DHT22;10667;51.056;3.732;2024-01-06T15:36:56;6.20;99.90
21019;DHT22;10667;51.056;3.732;2024-01-06T15:39:22;6.20;99.90
21019;DHT22;10667;51.056;3.732;2024-01-06T15:41:47;6.10;99.90
21019;DHT22;10667;51.056;3.732;2024-01-06T15:44:13;6.10;99.90